Time;durP1;ratioP1;P1;durP2;ratioP2;P2;SDS_P1;SDS_P2;PMS_P1;PMS_P2;Temp;Humidity;BMP_temperature;BMP_pressure;BME280_temperature;BME280_humidity;BME280_pressure;Samples;Min_cycle;Max_cycle;Signal;HPM_P1;HPM_P2
2021/09/02 00:02:13;;;;;;;64.57;43.90;;;;;;;14.06;92.68;101289.84;5015414;28;20112;-70
2021/09/02 00:04:40;;;;;;;63.08;44.60;;;;;;;14.05;92.48;101296.19;5015514;28;20046;-70
2021/09/02 00:07:07;;;;;;;60.92;44.50;;;;;;;14.04;93.07;101289.06;5015273;28;20498;-70
2021/09/02 00:09:34;;;;;;;65.38;43.95;;;;;;;14.02;92.81;101288.28;5015250;28;20088;-70
2021/09/02 00:12:01;;;;;;;68.20;45.28;;;;;;;13.94;93.12;101286.06;5015376;28;20049;-70
2021/09/02 00:14:28;;;;;;;66.88;45.67;;;;;;;13.90;92.72;101271.94;5015319;28;20042;-70
2021/09/02 00:16:55;;;;;;;69.95;47.22;;;;;;;13.84;92.39;101275.00;5013204;28;20107;-70
2021/09/02 00:19:22;;;;;;;67.03;45.67;;;;;;;13.82;92.29;101284.91;5015172;28;20331;-70
2021/09/02 00:21:49;;;;;;;66.15;46.92;;;;;;;13.70;92.35;101279.31;5015125;28;20041;-70
2021/09/02 00:24:16;;;;;;;74.38;48.30;;;;;;;13.65;92.70;101275.16;5015185;28;20074;-70
2021/09/02 00:26:43;;;;;;;68.00;47.60;;;;;;;13.59;93.00;101273.69;5015259;28;20100;-70
2021/09/02 00:29:10;;;;;;;72.55;48.13;;;;;;;13.49;93.82;101273.31;5030475;28;20061;-70
2021/09/02 00:31:37;;;;;;;69.18;46.88;;;;;;;13.40;94.42;101268.44;5015317;28;20037;-70
2021/09/02 00:34:04;;;;;;;67.40;47.90;;;;;;;13.39;94.48;101278.31;5017791;28;20046;-70
2021/09/02 00:36:31;;;;;;;70.38;47.22;;;;;;;13.33;94.99;101275.94;5017062;28;20049;-70
2021/09/02 00:38:58;;;;;;;68.75;46.05;;;;;;;13.18;95.03;101265.13;5017934;28;20347;-70
2021/09/02 00:41:25;;;;;;;76.18;48.08;;;;;;;13.18;95.23;101270.47;5019041;28;20042;-70
2021/09/02 00:43:52;;;;;;;69.97;48.40;;;;;;;13.10;95.55;101271.84;5017781;28;20050;-70
2021/09/02 00:46:19;;;;;;;69.10;47.45;;;;;;;13.08;95.49;101279.09;5034264;28;20141;-70
2021/09/02 00:48:50;;;;;;;74.30;47.53;;;;;;;12.96;95.45;101270.75;5017760;28;20145;-70
2021/09/02 00:51:18;;;;;;;73.10;47.40;;;;;;;12.93;96.04;101286.16;5018801;28;20034;-70
2021/09/02 00:53:55;;;;;;;73.63;48.22;;;;;;;12.90;95.76;101281.81;5017652;28;20133;-70
2021/09/02 00:56:26;;;;;;;73.55;48.78;;;;;;;12.65;96.60;101255.44;5018791;28;20058;-70
2021/09/02 00:58:54;;;;;;;71.88;47.90;;;;;;;12.71;97.01;101284.59;5001235;28;20053;-70
2021/09/02 01:01:21;;;;;;;70.20;47.25;;;;;;;12.68;97.05;101280.25;5018621;28;20046;-70
2021/09/02 01:03:48;;;;;;;72.68;47.38;;;;;;;12.61;97.34;101282.41;5018629;28;20100;-70
2021/09/02 01:06:16;;;;;;;67.35;45.15;;;;;;;12.53;97.47;101281.91;5018398;28;20049;-70
2021/09/02 01:08:44;;;;;;;75.95;47.90;;;;;;;12.43;97.68;101264.59;5018565;28;20042;-69
2021/09/02 01:11:11;;;;;;;72.20;46.30;;;;;;;12.45;97.74;101273.41;5018269;28;20105;-69
2021/09/02 01:13:37;;;;;;;73.40;45.58;;;;;;;12.36;98.38;101270.25;5018485;28;20441;-69
2021/09/02 01:16:04;;;;;;;70.30;47.33;;;;;;;12.29;98.78;101274.19;5017297;28;20050;-69
2021/09/02 01:18:31;;;;;;;68.40;45.58;;;;;;;12.12;99.22;101260.78;5018177;28;20054;-69
2021/09/02 01:20:58;;;;;;;72.68;48.63;;;;;;;12.11;99.23;101257.25;5017023;28;20096;-69
2021/09/02 01:23:25;;;;;;;66.38;46.38;;;;;;;12.11;99.48;101267.09;5018661;28;20053;-70
2021/09/02 01:25:52;;;;;;;78.85;48.63;;;;;;;12.06;99.85;101272.66;5018153;28;20042;-70
2021/09/02 01:28:19;;;;;;;72.82;48.70;;;;;;;12.02;99.98;101271.03;5018228;28;20057;-70
2021/09/02 01:30:47;;;;;;;74.40;47.85;;;;;;;11.92;100.00;101266.16;5016917;28;20710;-70
2021/09/02 01:33:15;;;;;;;73.72;47.30;;;;;;;11.90;99.53;101264.50;5018095;28;20124;-70
2021/09/02 01:35:43;;;;;;;72.47;46.58;;;;;;;11.88;99.76;101269.91;5017848;28;20046;-70
2021/09/02 01:38:11;;;;;;;76.43;47.83;;;;;;;11.82;100.00;101267.53;5017934;28;20034;-69
2021/09/02 01:40:47;;;;;;;80.53;50.13;;;;;;;11.88;100.00;101266.38;5017854;28;20053;-70
2021/09/02 01:43:16;;;;;;;78.90;48.00;;;;;;;11.74;100.00;101254.56;5016709;28;20100;-70
2021/09/02 01:45:44;;;;;;;72.47;48.67;;;;;;;11.79;100.00;101270.38;5017736;28;20058;-70
2021/09/02 01:48:11;;;;;;;77.78;47.90;;;;;;;11.69;100.00;101267.28;5017382;28;20050;-70
2021/09/02 01:50:42;;;;;;;75.65;47.25;;;;;;;11.68;100.00;101273.56;5017372;28;20364;-70
2021/09/02 01:53:13;;;;;;;78.00;47.90;;;;;;;11.62;100.00;101272.06;5017756;28;20056;-70
2021/09/02 01:55:42;;;;;;;75.95;46.72;;;;;;;11.63;100.00;101264.88;5017643;28;20077;-70
2021/09/02 01:58:09;;;;;;;70.63;46.80;;;;;;;11.60;100.00;101271.25;5032590;28;20046;-70
2021/09/02 02:00:36;;;;;;;76.38;48.55;;;;;;;11.54;100.00;101268.84;5017500;28;20049;-69
2021/09/02 02:03:04;;;;;;;74.75;46.63;;;;;;;11.51;100.00;101256.50;5017390;28;20113;-70
2021/09/02 02:05:32;;;;;;;79.30;48.10;;;;;;;11.55;100.00;101268.78;5017269;28;20053;-67
2021/09/02 02:07:59;;;;;;;77.20;47.83;;;;;;;11.35;100.00;101252.84;5016193;28;20049;-68
2021/09/02 02:10:26;;;;;;;77.97;46.75;;;;;;;11.42;100.00;101264.97;5017206;28;20045;-68
2021/09/02 02:12:59;;;;;;;78.63;47.00;;;;;;;11.42;100.00;101259.63;5017324;28;20748;-68
2021/09/02 02:15:27;;;;;;;71.35;46.88;;;;;;;11.39;100.00;101270.47;5017147;28;20054;-68
2021/09/02 02:17:55;;;;;;;79.10;46.70;;;;;;;11.37;100.00;101269.66;5017005;28;20050;-68
2021/09/02 02:20:22;;;;;;;73.30;46.20;;;;;;;11.31;100.00;101265.47;5016984;28;20050;-69
2021/09/02 02:22:49;;;;;;;76.10;47.03;;;;;;;11.26;100.00;101259.47;5017023;28;20052;-69
2021/09/02 02:25:16;;;;;;;74.50;44.75;;;;;;;11.27;100.00;101259.41;5016973;28;20470;-68
2021/09/02 02:27:43;;;;;;;77.82;46.25;;;;;;;11.24;100.00;101262.19;5017103;28;20644;-69
2021/09/02 02:30:13;;;;;;;74.20;46.47;;;;;;;11.25;100.00;101260.41;5016788;28;20057;-69
2021/09/02 02:32:41;;;;;;;78.87;46.53;;;;;;;11.22;100.00;101261.41;5017241;28;20125;-69
2021/09/02 02:35:08;;;;;;;76.85;47.03;;;;;;;11.11;100.00;101258.38;5016937;28;20446;-69
2021/09/02 02:37:36;;;;;;;79.30;46.92;;;;;;;11.20;100.00;101257.94;5016807;28;20057;-69
2021/09/02 02:40:05;;;;;;;75.63;47.25;;;;;;;11.15;100.00;101262.63;5016815;28;20041;-69
2021/09/02 02:42:32;;;;;;;78.00;47.05;;;;;;;11.07;100.00;101252.28;5016635;28;20093;-69
2021/09/02 02:44:58;;;;;;;81.13;47.28;;;;;;;11.10;100.00;101248.59;5015647;28;20049;-69
2021/09/02 02:47:26;;;;;;;77.28;44.83;;;;;;;11.05;100.00;101247.97;5015459;28;20054;-69
2021/09/02 02:49:52;;;;;;;75.20;45.75;;;;;;;11.08;100.00;101253.16;5016719;28;20050;-69
2021/09/02 02:52:19;;;;;;;79.43;47.25;;;;;;;11.03;100.00;101247.16;5017268;28;20042;-69
2021/09/02 02:54:46;;;;;;;76.95;46.10;;;;;;;11.02;100.00;101254.31;5017357;28;20046;-69
2021/09/02 02:57:13;;;;;;;74.60;44.47;;;;;;;11.03;100.00;101248.03;5020438;28;20045;-69
2021/09/02 02:59:40;;;;;;;81.47;45.45;;;;;;;11.00;100.00;101249.03;5019885;28;20045;-69
2021/09/02 03:02:06;;;;;;;77.00;45.35;;;;;;;11.04;100.00;101243.53;5016532;28;20041;-69
2021/09/02 03:04:33;;;;;;;75.63;45.33;;;;;;;10.99;100.00;101243.75;5016372;28;20069;-69
2021/09/02 03:07:00;;;;;;;76.47;45.60;;;;;;;11.02;100.00;101240.97;5016293;28;20084;-69
2021/09/02 03:09:27;;;;;;;73.63;43.80;;;;;;;10.99;100.00;101231.28;5015224;28;20124;-68
2021/09/02 03:11:54;;;;;;;72.72;43.15;;;;;;;11.00;100.00;101237.47;5015984;28;20424;-69
2021/09/02 03:14:20;;;;;;;75.15;44.63;;;;;;;10.97;100.00;101233.16;5016153;28;20058;-69
2021/09/02 03:16:47;;;;;;;75.63;43.00;;;;;;;10.98;100.00;101232.22;5016124;28;20049;-69
2021/09/02 03:19:14;;;;;;;73.53;44.10;;;;;;;10.99;100.00;101231.28;5015989;28;20046;-69
2021/09/02 03:21:40;;;;;;;78.50;45.55;;;;;;;10.97;100.00;101232.28;5015867;28;20048;-69
2021/09/02 03:24:07;;;;;;;81.35;46.35;;;;;;;10.97;100.00;101233.16;5016324;28;20054;-69
2021/09/02 03:26:34;;;;;;;80.28;45.13;;;;;;;10.97;100.00;101237.63;5014482;28;20047;-69
2021/09/02 03:29:01;;;;;;;81.70;46.92;;;;;;;10.99;100.00;101233.97;5015950;28;20038;-69
2021/09/02 03:31:27;;;;;;;81.47;45.35;;;;;;;10.98;100.00;101232.22;5015764;28;20049;-69
2021/09/02 03:33:54;;;;;;;81.22;45.60;;;;;;;10.94;100.00;101224.41;5014808;28;20038;-69
2021/09/02 03:36:21;;;;;;;79.32;47.50;;;;;;;11.00;100.00;101233.00;5015292;28;20793;-69
2021/09/02 03:38:48;;;;;;;85.60;47.33;;;;;;;10.97;100.00;101224.28;5014213;28;20045;-69
2021/09/02 03:41:14;;;;;;;85.10;47.92;;;;;;;10.99;100.00;101223.28;5015573;28;20811;-69
2021/09/02 03:43:41;;;;;;;86.47;48.00;;;;;;;10.95;100.00;101221.66;5014504;28;20352;-68
2021/09/02 03:46:08;;;;;;;87.72;48.10;;;;;;;10.92;100.00;101218.25;5014650;28;20073;-69
2021/09/02 03:48:35;;;;;;;80.57;48.40;;;;;;;10.91;100.00;101222.75;5015562;28;20129;-69
2021/09/02 03:51:01;;;;;;;90.53;49.55;;;;;;;10.96;100.00;101220.72;5014692;28;20046;-69
2021/09/02 03:53:28;;;;;;;82.28;47.92;;;;;;;10.97;100.00;101217.13;5014684;28;20045;-69
2021/09/02 03:55:55;;;;;;;82.18;46.50;;;;;;;10.90;100.00;101212.97;5014266;28;20046;-69
2021/09/02 03:58:22;;;;;;;85.50;48.00;;;;;;;10.93;100.00;101211.97;5015038;28;20480;-69
2021/09/02 04:00:49;;;;;;;90.03;50.17;;;;;;;10.85;100.00;101210.53;5015212;28;20050;-69
2021/09/02 04:03:15;;;;;;;89.65;50.35;;;;;;;10.86;100.00;101211.41;5014565;28;20335;-68
2021/09/02 04:05:42;;;;;;;89.43;49.83;;;;;;;10.91;100.00;101219.22;5012653;28;20050;-73
2021/09/02 04:08:09;;;;;;;95.63;52.83;;;;;;;10.84;100.00;101207.94;4993682;28;20054;-69
2021/09/02 04:10:36;;;;;;;98.28;51.42;;;;;;;10.87;100.00;101215.81;4996776;28;20116;-69
2021/09/02 04:13:03;;;;;;;96.43;52.10;;;;;;;10.89;100.00;101210.41;5016771;28;20063;-70
2021/09/02 04:15:30;;;;;;;99.50;52.05;;;;;;;10.87;100.00;101215.81;5009534;28;20041;-69
2021/09/02 04:17:56;;;;;;;102.47;52.63;;;;;;;10.88;100.00;101211.34;5015494;28;20053;-68
2021/09/02 04:20:27;;;;;;;;;;;;;;;10.93;100.00;101211.97;5017291;28;20445;-71
2021/09/02 04:22:54;;;;;;;104.55;51.70;;;;;;;10.91;100.00;101211.19;5009658;28;19926;-69
2021/09/02 04:25:21;;;;;;;101.55;51.47;;;;;;;10.86;100.00;101203.41;5016891;28;20104;-69
2021/09/02 04:27:48;;;;;;;104.28;54.28;;;;;;;10.89;100.00;101211.25;5021092;28;20046;-68
2021/09/02 04:30:15;;;;;;;100.90;52.53;;;;;;;10.85;100.00;101196.31;5016300;28;20380;-69
2021/09/02 04:32:43;;;;;;;103.30;53.22;;;;;;;10.91;100.00;101206.72;5007659;28;20053;-72
2021/09/02 04:35:12;;;;;;;100.13;51.20;;;;;;;10.89;100.00;101211.25;5018919;28;20042;-68
2021/09/02 04:37:43;;;;;;;100.07;52.63;;;;;;;10.93;100.00;101217.31;5016754;28;20045;-69
2021/09/02 04:40:11;;;;;;;92.25;49.67;;;;;;;10.91;100.00;101214.75;5033096;28;20053;-69
2021/09/02 04:42:38;;;;;;;93.22;48.72;;;;;;;10.87;100.00;101207.78;5017328;28;20046;-69
2021/09/02 04:45:06;;;;;;;94.95;49.03;;;;;;;10.86;100.00;101200.72;5018679;28;20100;-69
2021/09/02 04:47:33;;;;;;;88.45;47.00;;;;;;;10.86;100.00;101203.41;5011016;28;20112;-68
2021/09/02 04:50:00;;;;;;;92.40;48.42;;;;;;;10.86;100.00;101201.56;5006954;28;20335;-67
2021/09/02 04:52:27;;;;;;;90.70;48.50;;;;;;;10.89;100.00;101205.91;5001335;28;20034;-68
2021/09/02 04:54:55;;;;;;;86.10;48.35;;;;;;;10.86;100.00;101212.25;5015054;28;20332;-69
2021/09/02 04:57:22;;;;;;;89.35;48.55;;;;;;;10.88;100.00;101206.84;5009248;28;20038;-68
2021/09/02 04:59:49;;;;;;;87.03;47.90;;;;;;;10.93;100.00;101206.63;4998974;28;20096;-73
2021/09/02 05:02:16;;;;;;;85.28;46.33;;;;;;;10.88;100.00;101200.66;5016367;28;20328;-69
2021/09/02 05:04:43;;;;;;;85.13;46.38;;;;;;;10.89;100.00;101199.72;5017360;28;20045;-71
2021/09/02 05:07:10;;;;;;;86.72;47.30;;;;;;;11.00;100.00;101214.31;5001880;28;20065;-75
2021/09/02 05:09:42;;;;;;;87.40;47.17;;;;;;;11.03;100.00;101207.09;5011879;28;20053;-72
2021/09/02 05:12:16;;;;;;;80.07;45.88;;;;;;;11.10;100.00;101208.53;5010614;28;20092;-77
2021/09/02 05:14:43;;;;;;;88.57;46.30;;;;;;;11.20;100.00;101217.00;5017790;28;20054;-74
2021/09/02 05:17:11;;;;;;;79.53;42.88;;;;;;;11.21;100.00;101211.59;5017822;28;20099;-74
2021/09/02 05:19:38;;;;;;;83.32;45.55;;;;;;;11.30;100.00;101204.94;5017932;28;20041;-75
2021/09/02 05:22:05;;;;;;;84.07;45.83;;;;;;;11.33;100.00;101203.94;5013664;28;20037;-72
2021/09/02 05:24:31;;;;;;;78.13;45.10;;;;;;;11.35;100.00;101210.06;5017480;28;20702;-74
2021/09/02 05:27:03;;;;;;;82.43;43.28;;;;;;;11.40;100.00;101214.25;5025373;28;20050;-75
2021/09/02 05:29:29;;;;;;;75.47;43.05;;;;;;;11.36;100.00;101212.66;5020379;28;20049;-72
2021/09/02 05:31:56;;;;;;;78.50;43.88;;;;;;;11.40;100.00;101221.41;5017537;28;20498;-73
2021/09/02 05:34:23;;;;;;;84.75;44.17;;;;;;;11.37;100.00;101210.84;5017719;28;20168;-75
2021/09/02 05:36:50;;;;;;;77.28;42.97;;;;;;;11.39;100.00;101215.19;5020452;28;20053;-71
2021/09/02 05:39:16;;;;;;;70.70;41.90;;;;;;;11.35;100.00;101205.59;5016175;28;20049;-75
2021/09/02 05:41:43;;;;;;;79.10;44.00;;;;;;;11.43;100.00;101223.94;5016480;28;20053;-76
2021/09/02 05:44:11;;;;;;;81.40;43.30;;;;;;;11.43;100.00;101215.91;5017316;28;20060;-71
2021/09/02 05:46:39;;;;;;;80.15;42.47;;;;;;;11.48;100.00;101221.91;5017456;28;20065;-76
2021/09/02 05:49:06;;;;;;;79.40;41.83;;;;;;;11.53;100.00;101211.88;5015633;28;20062;-75
2021/09/02 05:51:33;;;;;;;77.03;41.20;;;;;;;11.57;100.00;101217.94;5016187;28;20052;-74
2021/09/02 05:54:00;;;;;;;78.28;40.90;;;;;;;11.63;100.00;101222.97;5017279;28;20099;-70
2021/09/02 05:56:26;;;;;;;78.68;42.85;;;;;;;11.64;100.00;101222.03;5016068;28;20077;-70
2021/09/02 05:58:53;;;;;;;74.35;41.47;;;;;;;11.68;100.00;101220.06;5017111;28;20042;-70
2021/09/02 06:01:20;;;;;;;76.97;41.78;;;;;;;11.73;100.00;101217.19;5016502;28;20475;-70
2021/09/02 06:03:47;;;;;;;75.50;39.47;;;;;;;11.73;100.00;101223.41;5014986;28;20070;-70
2021/09/02 06:06:14;;;;;;;75.85;40.83;;;;;;;11.78;100.00;101224.03;5015201;28;20677;-71
2021/09/02 06:08:41;;;;;;;74.25;41.50;;;;;;;11.81;100.00;101223.88;5015407;28;20103;-70
2021/09/02 06:11:08;;;;;;;72.57;39.17;;;;;;;11.85;100.00;101221.94;5014576;28;20096;-70
2021/09/02 06:13:34;;;;;;;72.10;38.55;;;;;;;11.88;100.00;101212.88;5016245;28;20046;-70
2021/09/02 06:16:02;;;;;;;70.57;37.53;;;;;;;11.87;100.00;101211.16;5016377;28;20331;-71
2021/09/02 06:18:29;;;;;;;67.95;37.17;;;;;;;11.92;100.00;101207.31;5016526;28;20057;-70
2021/09/02 06:20:56;;;;;;;71.05;37.85;;;;;;;11.98;100.00;101219.50;5000447;28;20049;-71
2021/09/02 06:23:23;;;;;;;67.75;36.25;;;;;;;11.95;100.00;101211.63;5016941;28;20042;-70
2021/09/02 06:25:50;;;;;;;67.90;35.50;;;;;;;12.13;100.00;101211.66;5015832;28;20103;-70
2021/09/02 06:28:17;;;;;;;70.13;35.58;;;;;;;12.15;100.00;101215.16;5016177;28;20065;-69
2021/09/02 06:30:44;;;;;;;67.53;35.92;;;;;;;12.19;100.00;101211.34;5015753;28;20126;-71
2021/09/02 06:33:11;;;;;;;74.65;36.60;;;;;;;12.20;100.00;101224.66;5015634;28;20045;-70
2021/09/02 06:35:38;;;;;;;66.68;36.35;;;;;;;12.22;100.00;101224.59;5015657;28;20050;-70
2021/09/02 06:38:06;;;;;;;64.80;35.78;;;;;;;12.23;100.00;101218.28;5016755;28;20052;-71
2021/09/02 06:40:34;;;;;;;69.80;35.58;;;;;;;12.30;100.00;101225.06;5015802;28;20050;-70
2021/09/02 06:43:01;;;;;;;66.68;33.75;;;;;;;12.38;100.00;101224.69;5016688;28;20042;-70
2021/09/02 06:45:27;;;;;;;61.78;31.92;;;;;;;12.44;100.00;101223.50;5016580;28;20049;-69
2021/09/02 06:47:54;;;;;;;67.85;34.60;;;;;;;12.41;100.00;101223.66;5017034;28;20069;-70
2021/09/02 06:50:21;;;;;;;61.85;32.83;;;;;;;12.53;100.00;101228.34;5016509;28;20200;-70
2021/09/02 06:52:48;;;;;;;67.32;31.13;;;;;;;12.52;100.00;101218.59;5016320;28;20041;-70
2021/09/02 06:55:15;;;;;;;66.38;32.47;;;;;;;12.66;100.00;101230.41;5015264;28;20053;-71
2021/09/02 06:57:42;;;;;;;57.13;28.83;;;;;;;12.72;100.00;101227.41;5015472;28;20049;-70
2021/09/02 07:00:10;;;;;;;56.78;30.30;;;;;;;12.73;100.00;101223.75;5016130;28;20395;-70
2021/09/02 07:02:37;;;;;;;61.08;29.98;;;;;;;12.75;100.00;101216.53;5016211;28;20052;-70
2021/09/02 07:05:06;;;;;;;56.95;29.33;;;;;;;12.76;100.00;101199.50;5016079;28;20057;-69
2021/09/02 07:07:34;;;;;;;61.03;29.30;;;;;;;12.84;100.00;101216.03;5016076;28;20054;-71
2021/09/02 07:10:02;;;;;;;61.63;29.45;;;;;;;12.86;100.00;101202.56;5016035;28;20056;-70
2021/09/02 07:12:29;;;;;;;49.50;27.23;;;;;;;13.02;100.00;101211.47;5014836;28;20125;-69
2021/09/02 07:14:56;;;;;;;52.58;27.50;;;;;;;13.12;99.58;101214.53;5015956;28;20046;-71
2021/09/02 07:17:23;;;;;;;49.30;26.65;;;;;;;13.07;99.34;101207.69;5015934;28;20111;-70
2021/09/02 07:19:50;;;;;;;47.35;26.55;;;;;;;13.25;99.65;101221.91;5015826;28;20042;-71
2021/09/02 07:22:16;;;;;;;52.67;26.45;;;;;;;13.28;99.24;101227.06;5016134;28;20034;-69
2021/09/02 07:24:43;;;;;;;50.55;27.63;;;;;;;13.28;99.66;101224.38;5015901;28;20050;-70
2021/09/02 07:27:10;;;;;;;50.67;25.67;;;;;;;13.25;100.00;101209.34;5015930;28;20045;-70
2021/09/02 07:29:37;;;;;;;47.65;25.20;;;;;;;13.33;99.73;101216.13;5016176;28;20355;-69
2021/09/02 07:32:04;;;;;;;55.17;26.27;;;;;;;13.34;100.00;101209.81;5030909;28;20119;-70
2021/09/02 07:34:30;;;;;;;53.92;25.90;;;;;;;13.39;100.00;101221.09;5014657;28;20339;-70
2021/09/02 07:36:58;;;;;;;52.67;25.30;;;;;;;13.52;99.26;101221.34;5015848;28;20111;-69
2021/09/02 07:39:25;;;;;;;45.90;25.27;;;;;;;13.61;98.25;101220.81;5015676;28;20052;-69
2021/09/02 07:41:52;;;;;;;50.00;25.65;;;;;;;13.56;99.03;101214.81;5015612;28;20060;-70
2021/09/02 07:44:19;;;;;;;47.53;25.23;;;;;;;13.64;99.80;101228.69;5015696;28;20053;-71
2021/09/02 07:46:46;;;;;;;52.58;25.65;;;;;;;13.66;99.29;101220.53;4997637;28;20057;-70
2021/09/02 07:49:13;;;;;;;54.95;25.83;;;;;;;13.80;98.93;101227.81;5015567;28;20408;-69
2021/09/02 07:51:41;;;;;;;51.78;26.80;;;;;;;14.04;96.46;101219.25;4981953;28;20046;-71
2021/09/02 07:54:08;;;;;;;49.00;27.23;;;;;;;14.13;96.56;101232.16;5016100;28;20046;-70
2021/09/02 07:56:35;;;;;;;51.60;27.55;;;;;;;14.13;97.56;101229.47;5015819;28;20351;-70
2021/09/02 07:59:06;;;;;;;48.58;27.42;;;;;;;14.16;96.21;101226.59;5016714;28;20049;-70
2021/09/02 08:01:33;;;;;;;56.22;28.30;;;;;;;14.11;96.27;101218.81;5015453;28;20046;-70
2021/09/02 08:04:00;;;;;;;48.53;26.98;;;;;;;14.32;95.17;101223.03;5015418;28;20056;-71
2021/09/02 08:06:27;;;;;;;49.63;25.92;;;;;;;14.36;95.93;101217.38;5015266;28;20045;-70
2021/09/02 08:08:54;;;;;;;42.10;22.23;;;;;;;14.42;96.78;101224.19;5015550;28;20053;-70
2021/09/02 08:11:21;;;;;;;36.25;21.20;;;;;;;14.46;95.48;101222.19;5015253;28;20046;-70
2021/09/02 08:13:47;;;;;;;38.72;21.13;;;;;;;14.50;95.36;101221.03;5030461;28;20386;-70
2021/09/02 08:16:14;;;;;;;39.42;20.58;;;;;;;14.64;94.82;101225.56;5015445;28;20413;-71
2021/09/02 08:18:41;;;;;;;38.58;20.63;;;;;;;14.77;94.97;101228.41;5015086;28;20054;-70
2021/09/02 08:21:08;;;;;;;36.30;20.65;;;;;;;14.80;94.76;101223.69;5015155;28;20042;-70
2021/09/02 08:23:35;;;;;;;36.05;20.48;;;;;;;14.88;94.79;101225.06;5015274;28;20042;-71
2021/09/02 08:26:01;;;;;;;37.53;21.27;;;;;;;14.95;92.33;101234.44;5014037;28;20359;-69
2021/09/02 08:28:28;;;;;;;38.67;21.35;;;;;;;15.00;94.31;101237.72;5015119;28;20427;-71
2021/09/02 08:30:55;;;;;;;36.22;18.98;;;;;;;14.96;93.04;101224.56;5015056;28;20049;-71
2021/09/02 08:33:23;;;;;;;32.05;17.33;;;;;;;15.10;92.34;101238.00;5014945;28;20038;-69
2021/09/02 08:35:53;;;;;;;30.17;17.02;;;;;;;15.16;91.87;101242.13;5015110;28;20044;-69
2021/09/02 08:38:20;;;;;;;30.63;16.95;;;;;;;15.21;91.78;101240.03;5014089;28;20064;-69
2021/09/02 08:40:48;;;;;;;30.98;16.95;;;;;;;15.27;90.92;101231.56;5014955;28;20486;-70
2021/09/02 08:43:16;;;;;;;37.72;18.08;;;;;;;15.39;90.17;101223.66;5015480;28;20396;-69
2021/09/02 08:46:04;;;;;;;26.42;16.40;;;;;;;15.53;89.92;101234.38;5014939;28;20050;-70
2021/09/02 08:48:33;;;;;;;31.73;16.38;;;;;;;15.55;89.67;101237.84;5014989;28;20050;-69
2021/09/02 08:51:01;;;;;;;27.55;15.68;;;;;;;15.70;89.66;101229.75;5014991;28;20117;-70
2021/09/02 08:53:27;;;;;;;31.13;16.90;;;;;;;15.80;88.46;101230.00;5014789;28;20042;-70
2021/09/02 08:55:54;;;;;;;38.15;18.67;;;;;;;15.81;88.46;101224.53;5014832;28;20316;-71
2021/09/02 08:58:21;;;;;;;33.63;16.75;;;;;;;15.83;89.83;101219.88;5013849;28;20346;-69
2021/09/02 09:00:48;;;;;;;37.03;17.23;;;;;;;15.87;88.80;101223.25;5017501;28;20077;-71
2021/09/02 09:03:19;;;;;;;30.42;15.98;;;;;;;15.93;88.59;101220.19;5018577;28;20128;-69
2021/09/02 09:05:56;;;;;;;28.92;16.80;;;;;;;16.04;88.19;101226.66;5018627;28;20050;-70
2021/09/02 09:08:37;;;;;;;30.98;17.15;;;;;;;16.15;87.18;101224.09;5018313;28;20087;-71
2021/09/02 09:11:14;;;;;;;31.10;17.08;;;;;;;16.15;86.27;101214.22;5034058;28;20129;-69
2021/09/02 09:13:42;;;;;;;32.10;16.98;;;;;;;16.33;86.85;101221.97;5018316;28;20041;-70
2021/09/02 09:16:09;;;;;;;27.30;16.25;;;;;;;16.43;86.53;101223.09;5018459;28;20077;-69
2021/09/02 09:18:45;;;;;;;36.25;18.23;;;;;;;16.47;86.35;101220.16;5018973;28;20061;-69
2021/09/02 09:21:16;;;;;;;32.30;18.98;;;;;;;16.56;86.96;101216.81;5020443;28;20049;-70
2021/09/02 09:24:04;;;;;;;36.63;18.63;;;;;;;16.60;86.13;101223.75;5020600;28;20053;-70
2021/09/02 09:26:32;;;;;;;28.02;16.20;;;;;;;16.67;86.22;101230.44;5017907;28;20061;-70
2021/09/02 09:29:02;;;;;;;32.78;16.50;;;;;;;16.68;83.90;101223.22;5017857;28;20054;-69
2021/09/02 09:31:36;;;;;;;36.88;17.08;;;;;;;16.78;85.65;101215.34;5016903;28;20073;-70
2021/09/02 09:34:06;;;;;;;26.83;15.45;;;;;;;16.87;82.06;101219.19;5013451;28;20058;-70
2021/09/02 09:36:35;;;;;;;28.25;15.88;;;;;;;17.01;83.63;101211.00;4998250;28;20050;-70
2021/09/02 09:39:08;;;;;;;29.33;14.70;;;;;;;17.13;82.09;101214.69;4998242;28;20508;-70
2021/09/02 09:41:40;;;;;;;30.92;16.38;;;;;;;17.19;81.68;101216.06;4998745;28;20101;-69
2021/09/02 09:44:14;;;;;;;34.33;16.90;;;;;;;17.30;82.21;101224.25;4998094;28;20042;-71
2021/09/02 09:46:40;;;;;;;29.58;16.55;;;;;;;17.40;80.26;101208.25;4998234;28;20042;-70
2021/09/02 09:49:07;;;;;;;38.22;17.10;;;;;;;17.48;81.13;101216.66;4996805;28;20053;-71
2021/09/02 09:51:34;;;;;;;32.70;17.13;;;;;;;17.53;80.00;101215.47;4998062;28;20042;-70
2021/09/02 09:54:02;;;;;;;29.98;16.63;;;;;;;17.53;81.18;101210.91;4997842;28;20096;-70
2021/09/02 09:56:29;;;;;;;30.88;18.00;;;;;;;17.74;78.86;101218.38;4996903;28;20045;-70
2021/09/02 09:58:56;;;;;;;32.47;17.15;;;;;;;17.84;79.19;101213.16;4997963;28;20050;-71
2021/09/02 10:01:26;;;;;;;31.48;17.10;;;;;;;17.78;80.27;101207.22;4997909;28;20133;-70
2021/09/02 10:03:54;;;;;;;33.40;17.00;;;;;;;17.89;77.47;101206.44;4996847;28;20038;-70
2021/09/02 10:06:23;;;;;;;26.83;14.70;;;;;;;18.03;79.33;101209.94;4996743;28;20325;-70
2021/09/02 10:08:50;;;;;;;26.58;15.65;;;;;;;18.14;76.60;101203.75;4997631;28;20046;-70
2021/09/02 10:11:19;;;;;;;29.27;17.15;;;;;;;18.09;76.71;101211.34;4997310;28;20042;-70
2021/09/02 10:13:46;;;;;;;25.67;15.57;;;;;;;18.13;76.60;101212.81;4996401;28;20046;-69
2021/09/02 10:16:13;;;;;;;31.25;17.20;;;;;;;18.26;74.82;101208.19;4997647;28;20046;-71
2021/09/02 10:18:46;;;;;;;28.95;16.35;;;;;;;18.27;76.02;101204.53;4997661;28;20068;-70
2021/09/02 10:21:15;;;;;;;28.67;16.92;;;;;;;18.51;74.93;101205.44;4998993;28;20046;-70
2021/09/02 10:23:43;;;;;;;30.13;17.63;;;;;;;18.57;75.94;101202.22;5017756;28;20033;-69
2021/09/02 10:26:33;;;;;;;28.83;16.92;;;;;;;18.66;74.83;101204.22;5016023;28;20104;-70
2021/09/02 10:29:01;;;;;;;35.50;16.05;;;;;;;18.78;75.65;101194.28;5017034;28;20092;-70
2021/09/02 10:31:28;;;;;;;29.90;17.17;;;;;;;18.84;74.27;101184.81;5016838;28;20046;-70
2021/09/02 10:33:55;;;;;;;29.25;14.88;;;;;;;18.97;73.79;101184.69;5016679;28;20041;-69
2021/09/02 10:36:23;;;;;;;26.83;16.55;;;;;;;19.08;73.14;101187.44;5032188;28;20050;-70
2021/09/02 10:38:53;;;;;;;31.30;16.75;;;;;;;19.23;73.87;101176.34;5016691;28;20045;-69
2021/09/02 10:41:34;;;;;;;26.95;14.68;;;;;;;19.33;71.30;101176.44;5016839;28;20045;-69
2021/09/02 10:44:02;;;;;;;25.33;13.98;;;;;;;19.33;71.06;101169.16;5016949;28;20343;-69
2021/09/02 10:46:45;;;;;;;23.00;12.65;;;;;;;19.39;72.11;101167.84;5032031;28;20470;-71
2021/09/02 10:49:15;;;;;;;;;;;;;;;19.39;70.86;101165.13;5016983;28;20054;-71
2021/09/02 10:52:04;;;;;;;19.90;12.50;;;;;;;19.47;69.13;101173.47;5016639;28;19921;-70
2021/09/02 10:54:36;;;;;;;25.35;15.27;;;;;;;19.74;72.26;101165.84;5015369;28;20091;-70
2021/09/02 10:57:08;;;;;;;26.80;13.00;;;;;;;19.79;66.83;101160.91;5016429;28;20042;-70
2021/09/02 10:59:40;;;;;;;23.45;13.25;;;;;;;19.90;69.57;101158.16;5031666;28;20427;-69
2021/09/02 11:02:17;;;;;;;25.60;15.18;;;;;;;20.06;69.50;101160.44;5016358;28;20053;-71
2021/09/02 11:04:45;;;;;;;28.67;17.50;;;;;;;20.06;69.19;101154.16;5016307;28;20066;-71
2021/09/02 11:07:12;;;;;;;30.75;17.00;;;;;;;20.28;68.87;101152.31;5016236;28;20049;-71
2021/09/02 11:09:42;;;;;;;26.80;16.13;;;;;;;20.25;68.14;101161.56;5016171;28;20038;-70